createdAt,value
2019-04-25T00:01:05.294Z,51.60
2019-04-25T00:03:36.968Z,51.50
2019-04-25T00:06:06.637Z,51.60
2019-04-25T00:08:37.249Z,51.60
2019-04-25T00:11:08.398Z,51.60
2019-04-25T00:13:38.027Z,51.60
2019-04-25T00:16:08.552Z,51.50
2019-04-25T00:18:38.640Z,51.50
2019-04-25T00:21:21.959Z,51.50
2019-04-25T00:23:56.621Z,51.50
2019-04-25T00:26:43.987Z,51.50
2019-04-25T00:29:13.653Z,51.60
2019-04-25T00:31:44.852Z,51.60
2019-04-25T00:34:14.799Z,51.60
2019-04-25T00:36:45.552Z,51.60
2019-04-25T00:39:16.782Z,51.60
2019-04-25T00:41:47.184Z,51.50
2019-04-25T00:44:17.486Z,51.50
2019-04-25T00:46:51.485Z,51.60
2019-04-25T00:49:20.006Z,51.60
2019-04-25T00:51:50.281Z,51.60
2019-04-25T00:54:22.554Z,51.50
2019-04-25T00:56:53.554Z,50.30
2019-04-25T00:59:45.631Z,52.20
2019-04-25T01:02:27.577Z,51.60
2019-04-25T01:04:57.189Z,51.60
2019-04-25T01:07:26.816Z,51.60
2019-04-25T01:09:56.421Z,51.70
2019-04-25T01:12:26.017Z,51.60
2019-04-25T01:14:55.601Z,51.60
2019-04-25T01:17:25.207Z,51.60
2019-04-25T01:19:57.757Z,51.60
2019-04-25T01:22:26.215Z,51.60
2019-04-25T01:24:56.096Z,51.60
2019-04-25T01:27:27.869Z,52.10
2019-04-25T01:29:57.485Z,51.60
2019-04-25T01:32:35.318Z,51.60
2019-04-25T01:35:27.845Z,51.60
2019-04-25T01:38:25.327Z,51.60
2019-04-25T01:41:14.471Z,51.60
2019-04-25T01:44:05.858Z,51.60
2019-04-25T01:46:39.314Z,51.40
2019-04-25T01:49:08.855Z,51.70
2019-04-25T01:51:38.472Z,51.60
2019-04-25T01:54:08.094Z,51.60
2019-04-25T01:56:37.782Z,51.50
2019-04-25T01:59:07.350Z,51.50
2019-04-25T02:01:38.674Z,51.60
2019-04-25T02:04:08.350Z,51.60
2019-04-25T02:06:38.095Z,51.60
2019-04-25T02:09:13.519Z,51.40
2019-04-25T02:11:54.701Z,51.60
2019-04-25T02:14:24.530Z,51.50
2019-04-25T02:16:55.867Z,51.60
2019-04-25T02:19:25.588Z,51.50
2019-04-25T02:21:56.624Z,51.50
2019-04-25T02:24:27.840Z,51.60
2019-04-25T02:26:57.468Z,51.40
2019-04-25T02:29:27.197Z,51.50
2019-04-25T02:32:00.213Z,51.40
2019-04-25T02:34:29.801Z,51.60
2019-04-25T02:37:03.971Z,51.60
2019-04-25T02:39:30.804Z,51.50
2019-04-25T02:42:02.257Z,51.50
2019-04-25T02:44:34.486Z,51.50
2019-04-25T02:47:19.416Z,51.50
2019-04-25T02:50:07.537Z,51.50
2019-04-25T02:52:38.454Z,51.50
2019-04-25T02:55:10.624Z,51.40
2019-04-25T02:57:39.407Z,51.60
2019-04-25T03:00:16.357Z,51.50
2019-04-25T03:02:45.940Z,51.50
2019-04-25T03:05:15.530Z,51.50
2019-04-25T03:07:45.118Z,51.40
2019-04-25T03:10:15.031Z,51.50
2019-04-25T03:12:45.163Z,51.40
2019-04-25T03:15:15.767Z,51.50
2019-04-25T03:17:45.414Z,51.60
2019-04-25T03:20:28.747Z,51.40
2019-04-25T03:23:06.986Z,51.40
2019-04-25T03:25:35.845Z,51.50
2019-04-25T03:28:06.099Z,51.50
2019-04-25T03:30:36.265Z,51.50
2019-04-25T03:33:10.452Z,51.50
2019-04-25T03:35:37.218Z,51.50
2019-04-25T03:38:06.920Z,51.40
2019-04-25T03:40:36.475Z,51.50
2019-04-25T03:43:07.034Z,51.30
2019-04-25T03:45:37.174Z,51.30
2019-04-25T03:48:07.544Z,51.40
2019-04-25T03:50:37.696Z,51.40
2019-04-25T03:53:07.940Z,51.50
2019-04-25T03:55:38.098Z,51.50
2019-04-25T03:58:10.531Z,51.50
2019-04-25T04:00:39.033Z,51.40
2019-04-25T04:03:09.069Z,51.40
2019-04-25T04:05:39.212Z,51.30
2019-04-25T04:08:09.693Z,51.70
2019-04-25T04:10:39.886Z,51.40
2019-04-25T04:13:10.250Z,51.40
2019-04-25T04:15:40.436Z,51.30
2019-04-25T04:18:27.057Z,51.40
2019-04-25T04:21:19.358Z,51.30
2019-04-25T04:23:54.474Z,51.30
2019-04-25T04:26:24.944Z,51.20
2019-04-25T04:28:54.523Z,51.20
2019-04-25T04:31:24.189Z,51.40
2019-04-25T04:33:53.786Z,51.40
2019-04-25T04:36:23.811Z,51.30
2019-04-25T04:38:54.305Z,51.20
2019-04-25T04:41:24.446Z,51.40
2019-04-25T04:43:54.273Z,51.20
2019-04-25T04:46:24.149Z,51.40
2019-04-25T04:48:55.357Z,51.30
2019-04-25T04:51:25.592Z,51.20
2019-04-25T04:53:55.152Z,51.40
2019-04-25T04:56:25.755Z,51.30
2019-04-25T04:58:55.872Z,51.40
2019-04-25T05:01:27.187Z,51.20
2019-04-25T05:04:07.410Z,51.60
2019-04-25T05:06:54.756Z,51.30
2019-04-25T05:09:27.233Z,51.20
2019-04-25T05:11:56.827Z,51.20
2019-04-25T05:14:26.718Z,51.20
2019-04-25T05:16:56.847Z,51.30
2019-04-25T05:19:26.457Z,51.30
2019-04-25T05:21:56.028Z,51.40
2019-04-25T05:24:26.396Z,51.30
2019-04-25T05:26:56.663Z,51.10
2019-04-25T05:29:26.777Z,51.30
2019-04-25T05:31:57.388Z,51.30
2019-04-25T05:34:27.159Z,51.20
2019-04-25T05:36:56.949Z,51.30
2019-04-25T05:39:27.327Z,51.40
2019-04-25T05:42:09.447Z,51.10
2019-04-25T05:44:39.570Z,51.30
2019-04-25T05:47:09.269Z,51.20
2019-04-25T05:49:39.517Z,51.30
2019-04-25T05:52:10.832Z,51.20
2019-04-25T05:54:40.855Z,51.70
2019-04-25T05:57:10.886Z,51.20
2019-04-25T05:59:40.579Z,51.20
2019-04-25T06:02:10.431Z,51.20
2019-04-25T06:04:40.494Z,51.20
2019-04-25T06:07:10.519Z,51.20
2019-04-25T06:09:59.924Z,51.90
2019-04-25T06:13:01.716Z,51.10
2019-04-25T06:15:33.411Z,51.10
2019-04-25T06:18:26.570Z,51.20
2019-04-25T06:20:58.276Z,51.20
2019-04-25T06:23:54.462Z,51.40
2019-04-25T06:26:34.707Z,51.40
2019-04-25T06:28:59.834Z,51.40
2019-04-25T06:31:30.883Z,51.50
2019-04-25T06:34:01.434Z,51.30
2019-04-25T06:36:35.254Z,51.40
2019-04-25T06:39:08.431Z,51.30
2019-04-25T06:41:39.172Z,51.40
2019-04-25T06:44:11.572Z,51.30
2019-04-25T06:47:10.758Z,51.30
2019-04-25T06:49:41.356Z,51.40
2019-04-25T06:52:11.878Z,51.10
2019-04-25T06:54:43.669Z,51.00
2019-04-25T06:57:14.195Z,51.00
2019-04-25T06:59:44.735Z,50.90
2019-04-25T07:02:14.881Z,50.90
2019-04-25T07:04:45.640Z,50.90
2019-04-25T07:07:16.502Z,51.00
2019-04-25T07:09:46.995Z,51.00
2019-04-25T07:12:17.195Z,51.10
2019-04-25T07:14:47.995Z,51.00
2019-04-25T07:17:18.977Z,51.10
2019-04-25T07:19:49.463Z,51.10
2019-04-25T07:22:20.313Z,51.10
2019-04-25T07:24:51.056Z,51.10
2019-04-25T07:27:40.963Z,51.00
2019-04-25T07:30:50.131Z,51.20
2019-04-25T07:33:27.174Z,51.20
2019-04-25T07:35:57.739Z,51.10
2019-04-25T07:38:27.859Z,51.20
2019-04-25T07:40:57.936Z,51.20
2019-04-25T07:43:28.269Z,51.20
2019-04-25T07:45:58.704Z,51.00
2019-04-25T07:48:30.069Z,51.00
2019-04-25T07:51:00.812Z,51.00
2019-04-25T07:53:33.933Z,51.00
2019-04-25T07:56:04.556Z,50.90
2019-04-25T07:58:49.375Z,51.00
2019-04-25T08:01:13.979Z,51.00
2019-04-25T08:03:44.435Z,51.00
2019-04-25T08:06:14.889Z,51.10
2019-04-25T08:08:45.747Z,51.00
2019-04-25T08:11:16.079Z,50.90
2019-04-25T08:14:03.329Z,50.90
2019-04-25T08:16:35.708Z,50.90
2019-04-25T08:19:06.482Z,51.00
2019-04-25T08:21:38.357Z,51.00
2019-04-25T08:24:09.977Z,50.80
2019-04-25T08:26:41.761Z,50.90
2019-04-25T08:29:13.983Z,51.20
2019-04-25T08:31:45.351Z,50.90
2019-04-25T08:34:16.411Z,50.90
2019-04-25T08:36:47.738Z,50.90
2019-04-25T08:39:19.724Z,50.80
2019-04-25T08:41:50.813Z,50.10
2019-04-25T08:44:23.986Z,50.70
2019-04-25T08:46:53.923Z,50.70
2019-04-25T08:49:30.394Z,50.70
2019-04-25T08:52:00.831Z,50.70
2019-04-25T08:54:41.108Z,50.80
2019-04-25T08:57:16.123Z,50.70
2019-04-25T09:00:06.115Z,50.70
2019-04-25T09:02:48.185Z,50.70
2019-04-25T09:05:28.720Z,50.70
2019-04-25T09:07:58.526Z,50.80
2019-04-25T09:10:28.170Z,50.60
2019-04-25T09:12:57.766Z,50.60
2019-04-25T09:15:27.462Z,50.50
2019-04-25T09:17:57.026Z,50.50
2019-04-25T09:20:26.687Z,50.60
2019-04-25T09:22:56.425Z,50.50
2019-04-25T09:25:25.984Z,50.50
2019-04-25T09:27:55.588Z,50.50
2019-04-25T09:30:26.368Z,50.60
2019-04-25T09:32:55.975Z,50.70
2019-04-25T09:35:25.602Z,50.40
2019-04-25T09:37:55.175Z,50.50
2019-04-25T09:40:24.818Z,50.50
2019-04-25T09:42:54.381Z,50.50
2019-04-25T09:45:44.929Z,50.50
2019-04-25T09:48:42.301Z,50.60
2019-04-25T09:51:26.057Z,50.70
2019-04-25T09:54:03.482Z,50.60
2019-04-25T09:56:45.099Z,50.50
2019-04-25T09:59:27.352Z,50.50
2019-04-25T10:01:51.284Z,50.40
2019-04-25T10:04:22.959Z,51.00
2019-04-25T10:06:53.828Z,51.60
2019-04-25T10:09:24.481Z,50.60
2019-04-25T10:11:54.716Z,51.00
2019-04-25T10:15:11.295Z,50.40
2019-04-25T10:17:41.151Z,50.30
2019-04-25T10:20:11.245Z,50.40
2019-04-25T10:22:40.884Z,50.40
2019-04-25T10:25:10.661Z,50.40
2019-04-25T10:27:40.749Z,50.30
2019-04-25T10:30:17.614Z,50.20
2019-04-25T10:32:44.924Z,50.30
2019-04-25T10:35:16.594Z,50.30
2019-04-25T10:37:47.252Z,50.20
2019-04-25T10:40:18.714Z,50.10
2019-04-25T10:42:50.618Z,50.20
2019-04-25T10:45:23.728Z,50.10
2019-04-25T10:47:54.985Z,50.00
2019-04-25T10:50:25.323Z,50.20
2019-04-25T10:52:55.839Z,50.10
2019-04-25T10:55:26.449Z,50.10
2019-04-25T10:58:05.131Z,50.10
2019-04-25T11:00:38.588Z,50.10
2019-04-25T11:03:20.789Z,50.10
2019-04-25T11:05:52.273Z,50.00
2019-04-25T11:08:24.525Z,50.10
2019-04-25T11:10:55.773Z,50.10
2019-04-25T11:13:25.939Z,50.10
2019-04-25T11:15:57.072Z,50.10
2019-04-25T11:18:28.048Z,50.10
2019-04-25T11:20:59.243Z,50.00
2019-04-25T11:23:29.852Z,50.00
2019-04-25T11:26:03.748Z,50.10
2019-04-25T11:28:34.497Z,50.00
2019-04-25T11:31:07.090Z,50.00
2019-04-25T11:33:37.666Z,50.20
2019-04-25T11:36:08.145Z,50.10
2019-04-25T11:39:09.928Z,50.10
2019-04-25T11:41:41.638Z,50.10
2019-04-25T11:44:13.531Z,50.20
2019-04-25T11:46:45.320Z,50.20
2019-04-25T11:49:16.097Z,50.10
2019-04-25T11:51:46.722Z,50.00
2019-04-25T11:54:17.436Z,50.00
2019-04-25T11:56:48.573Z,50.00
2019-04-25T11:59:19.600Z,50.00
2019-04-25T12:01:49.923Z,50.70
2019-04-25T12:04:21.131Z,50.10
2019-04-25T12:06:51.102Z,50.10
2019-04-25T12:09:24.125Z,50.10
2019-04-25T12:11:55.892Z,50.10
2019-04-25T12:14:26.512Z,50.10
2019-04-25T12:16:56.479Z,50.10
2019-04-25T12:19:34.639Z,50.10
2019-04-25T12:21:58.318Z,50.10
2019-04-25T12:24:28.418Z,50.10
2019-04-25T12:26:58.448Z,50.10
2019-04-25T12:29:28.500Z,50.20
2019-04-25T12:31:58.645Z,50.10
2019-04-25T12:34:29.405Z,50.10
2019-04-25T12:36:59.916Z,50.10
2019-04-25T12:39:30.535Z,50.20
2019-04-25T12:42:00.736Z,50.20
2019-04-25T12:45:04.713Z,50.20
2019-04-25T12:47:35.954Z,50.20
2019-04-25T12:50:05.859Z,50.30
2019-04-25T12:52:35.457Z,50.30
2019-04-25T12:55:06.874Z,50.40
2019-04-25T12:57:36.684Z,50.40
2019-04-25T13:00:06.845Z,50.40
2019-04-25T13:02:36.698Z,50.40
2019-04-25T13:05:08.076Z,50.30
2019-04-25T13:07:39.548Z,50.30
2019-04-25T13:10:10.273Z,50.40
2019-04-25T13:12:39.934Z,50.30
2019-04-25T13:15:09.919Z,50.40
2019-04-25T13:17:40.984Z,50.50
2019-04-25T13:20:10.881Z,50.40
2019-04-25T13:22:40.642Z,50.50
2019-04-25T13:25:11.162Z,50.50
2019-04-25T13:27:50.275Z,50.50
2019-04-25T13:30:37.682Z,50.60
2019-04-25T13:33:28.602Z,50.60
2019-04-25T13:36:13.897Z,50.70
2019-04-25T13:38:45.249Z,50.40
2019-04-25T13:41:15.098Z,50.50
2019-04-25T13:43:44.799Z,50.40
2019-04-25T13:46:19.731Z,50.50
2019-04-25T13:48:45.931Z,50.30
2019-04-25T13:51:15.536Z,50.60
2019-04-25T13:53:45.175Z,50.50
2019-04-25T13:56:16.547Z,50.60
2019-04-25T13:58:46.335Z,50.60
2019-04-25T14:01:17.706Z,50.60
2019-04-25T14:03:47.389Z,50.60
2019-04-25T14:06:17.006Z,50.70
2019-04-25T14:08:46.731Z,50.60
2019-04-25T14:11:16.716Z,50.60
2019-04-25T14:13:46.299Z,50.50
2019-04-25T14:16:34.609Z,50.60
2019-04-25T14:19:24.325Z,50.70
2019-04-25T14:21:56.847Z,50.70
2019-04-25T14:24:30.509Z,50.70
2019-04-25T14:26:58.091Z,50.70
2019-04-25T14:29:28.244Z,50.70
2019-04-25T14:31:58.593Z,50.70
2019-04-25T14:34:28.329Z,50.70
2019-04-25T14:36:58.047Z,50.70
2019-04-25T14:39:28.137Z,50.80
2019-04-25T14:41:57.962Z,50.60
2019-04-25T14:44:28.558Z,50.60
2019-04-25T14:46:58.471Z,50.60
2019-04-25T14:49:28.965Z,50.60
2019-04-25T14:51:58.515Z,50.70
2019-04-25T14:54:40.227Z,50.70
2019-04-25T14:57:15.377Z,50.60
2019-04-25T14:59:44.964Z,50.60
2019-04-25T15:02:14.605Z,50.70
2019-04-25T15:04:44.243Z,51.00
2019-04-25T15:07:13.910Z,50.70
2019-04-25T15:09:43.524Z,50.70
2019-04-25T15:12:13.891Z,50.60
2019-04-25T15:14:43.475Z,50.70
2019-04-25T15:17:13.220Z,50.70
2019-04-25T15:19:42.881Z,50.60
2019-04-25T15:22:12.543Z,50.70
2019-04-25T15:24:42.181Z,50.70
2019-04-25T15:27:11.831Z,50.70
2019-04-25T15:29:42.401Z,50.90
2019-04-25T15:32:15.461Z,50.70
2019-04-25T15:34:53.282Z,50.80
2019-04-25T15:37:48.222Z,50.80
2019-04-25T15:40:36.503Z,50.90
2019-04-25T15:43:26.213Z,50.80
2019-04-25T15:46:06.614Z,50.60
2019-04-25T15:48:36.167Z,50.80
2019-04-25T15:51:05.822Z,50.90
2019-04-25T15:53:35.472Z,50.90
2019-04-25T15:56:05.131Z,50.80
2019-04-25T15:58:35.259Z,50.90
2019-04-25T16:01:07.377Z,50.90
2019-04-25T16:03:36.996Z,50.80
2019-04-25T16:06:06.962Z,50.80
2019-04-25T16:08:36.534Z,50.70
2019-04-25T16:11:06.183Z,50.80
2019-04-25T16:13:35.803Z,50.80
2019-04-25T16:16:06.935Z,51.20
2019-04-25T16:18:36.536Z,50.90
2019-04-25T16:21:07.194Z,50.80
2019-04-25T16:23:36.907Z,50.70
2019-04-25T16:26:06.784Z,50.80
2019-04-25T16:28:36.855Z,50.80
2019-04-25T16:31:08.475Z,50.90
2019-04-25T16:33:38.540Z,50.70
2019-04-25T16:36:09.269Z,51.00
2019-04-25T16:38:39.857Z,50.90
2019-04-25T16:41:11.111Z,50.90
2019-04-25T16:43:44.604Z,50.90
2019-04-25T16:46:15.621Z,50.90
2019-04-25T16:48:46.118Z,50.90
2019-04-25T16:51:18.272Z,51.00
2019-04-25T16:53:48.960Z,50.90
2019-04-25T16:56:19.517Z,50.90
2019-04-25T16:58:50.187Z,50.90
2019-04-25T17:01:20.688Z,50.90
2019-04-25T17:03:50.455Z,50.70
2019-04-25T17:06:21.360Z,50.90
2019-04-25T17:08:51.443Z,51.00
2019-04-25T17:11:21.907Z,50.90
2019-04-25T17:14:09.459Z,51.00
2019-04-25T17:16:58.724Z,50.90
2019-04-25T17:19:50.414Z,50.80
2019-04-25T17:22:21.015Z,50.80
2019-04-25T17:24:51.086Z,50.90
2019-04-25T17:27:23.628Z,50.80
2019-04-25T17:29:53.493Z,51.00
2019-04-25T17:32:54.934Z,50.80
2019-04-25T17:35:33.539Z,50.90
2019-04-25T17:38:11.642Z,51.10
2019-04-25T17:40:41.866Z,51.10
2019-04-25T17:43:12.695Z,51.00
2019-04-25T17:45:43.797Z,51.00
2019-04-25T17:48:14.415Z,51.00
2019-04-25T17:50:45.216Z,51.10
2019-04-25T17:53:15.518Z,51.10
2019-04-25T17:55:45.702Z,51.00
2019-04-25T17:58:16.313Z,51.00
2019-04-25T18:00:48.536Z,51.00
2019-04-25T18:03:18.806Z,51.00
2019-04-25T18:05:49.088Z,50.80
2019-04-25T18:08:19.332Z,50.90
2019-04-25T18:10:49.722Z,50.90
2019-04-25T18:13:21.234Z,50.90
2019-04-25T18:16:07.862Z,51.00
2019-04-25T18:18:56.837Z,51.10
2019-04-25T18:21:27.458Z,51.10
2019-04-25T18:24:15.682Z,51.20
2019-04-25T18:26:53.571Z,51.10
2019-04-25T18:29:24.949Z,51.20
2019-04-25T18:31:55.569Z,51.20
2019-04-25T18:34:38.767Z,51.10
2019-04-25T18:37:29.321Z,51.20
2019-04-25T18:40:12.524Z,51.20
2019-04-25T18:43:07.670Z,51.20
2019-04-25T18:45:40.401Z,51.20
2019-04-25T18:48:11.365Z,51.20
2019-04-25T18:50:42.583Z,51.10
2019-04-25T18:53:37.734Z,51.10
2019-04-25T18:56:18.908Z,51.20
2019-04-25T18:59:20.970Z,51.20
2019-04-25T19:02:09.412Z,51.70
2019-04-25T19:04:59.511Z,51.20
2019-04-25T19:07:31.835Z,51.20
2019-04-25T19:10:03.268Z,51.20
2019-04-25T19:12:34.735Z,51.10
2019-04-25T19:15:05.825Z,51.10
2019-04-25T19:17:36.771Z,51.20
2019-04-25T19:20:07.665Z,51.10
2019-04-25T19:22:40.127Z,51.10
2019-04-25T19:25:11.121Z,51.10
2019-04-25T19:27:42.324Z,51.00
2019-04-25T19:30:15.482Z,51.10
2019-04-25T19:32:47.080Z,51.10
2019-04-25T19:35:18.735Z,51.10
2019-04-25T19:37:50.926Z,51.20
2019-04-25T19:40:55.934Z,51.20
2019-04-25T19:43:51.043Z,51.10
2019-04-25T19:46:29.700Z,51.10
2019-04-25T19:49:00.595Z,51.20
2019-04-25T19:51:31.767Z,51.20
2019-04-25T19:54:02.568Z,51.20
2019-04-25T19:56:33.731Z,51.20
2019-04-25T19:59:04.953Z,51.20
2019-04-25T20:01:36.312Z,51.20
2019-04-25T20:04:25.645Z,51.20
2019-04-25T20:07:28.119Z,51.10
2019-04-25T20:10:27.463Z,51.20
2019-04-25T20:12:58.653Z,51.20
2019-04-25T20:15:29.912Z,51.20
2019-04-25T20:18:00.914Z,51.20
2019-04-25T20:20:32.011Z,51.20
2019-04-25T20:23:02.965Z,51.20
2019-04-25T20:25:34.080Z,51.10
2019-04-25T20:28:05.264Z,51.10
2019-04-25T20:30:37.779Z,51.10
2019-04-25T20:33:08.921Z,51.70
2019-04-25T20:35:40.716Z,51.10
2019-04-25T20:38:11.884Z,51.20
2019-04-25T20:40:42.697Z,51.10
2019-04-25T20:43:12.309Z,51.10
2019-04-25T20:45:42.024Z,51.00
2019-04-25T20:48:11.660Z,51.00
2019-04-25T20:50:41.313Z,51.00
2019-04-25T20:53:10.969Z,51.10
2019-04-25T20:55:40.625Z,51.00
2019-04-25T20:58:10.313Z,51.10
2019-04-25T21:00:42.789Z,51.00
2019-04-25T21:03:12.488Z,51.00
2019-04-25T21:05:43.162Z,51.10
2019-04-25T21:08:12.769Z,51.10
2019-04-25T21:10:42.494Z,51.00
2019-04-25T21:13:16.434Z,51.10
2019-04-25T21:15:52.770Z,51.10
2019-04-25T21:18:38.155Z,51.10
2019-04-25T21:21:07.791Z,51.00
2019-04-25T21:23:37.523Z,51.00
2019-04-25T21:26:07.169Z,51.00
2019-04-25T21:28:36.821Z,51.10
2019-04-25T21:31:06.532Z,51.10
2019-04-25T21:33:36.276Z,51.10
2019-04-25T21:36:06.077Z,51.00
2019-04-25T21:38:35.859Z,51.10
2019-04-25T21:41:13.224Z,51.10
2019-04-25T21:43:48.322Z,51.10
2019-04-25T21:46:18.682Z,51.10
2019-04-25T21:48:49.122Z,51.00
2019-04-25T21:51:31.260Z,51.10
2019-04-25T21:54:02.549Z,51.10
2019-04-25T21:56:33.784Z,51.10
2019-04-25T21:59:04.143Z,51.20
2019-04-25T22:01:37.502Z,51.10
2019-04-25T22:04:07.134Z,51.10
2019-04-25T22:06:37.675Z,51.10
2019-04-25T22:09:10.537Z,51.10
2019-04-25T22:11:40.319Z,51.10
2019-04-25T22:14:10.348Z,51.10
2019-04-25T22:16:40.313Z,51.10
2019-04-25T22:19:10.893Z,51.10
2019-04-25T22:21:40.721Z,51.10
2019-04-25T22:24:14.717Z,51.10
2019-04-25T22:26:43.201Z,51.10
2019-04-25T22:29:13.403Z,51.10
2019-04-25T22:32:14.265Z,51.00
2019-04-25T22:34:52.593Z,51.00
2019-04-25T22:37:22.349Z,51.10
2019-04-25T22:39:52.149Z,51.00
2019-04-25T22:42:23.559Z,51.00
2019-04-25T22:44:53.213Z,51.00
2019-04-25T22:47:22.803Z,51.00
2019-04-25T22:49:52.637Z,51.10
2019-04-25T22:52:23.044Z,51.10
2019-04-25T22:54:52.692Z,51.10
2019-04-25T22:57:23.101Z,51.10
2019-04-25T22:59:52.698Z,51.00
2019-04-25T23:02:34.597Z,51.10
2019-04-25T23:05:27.053Z,51.10
2019-04-25T23:07:57.026Z,51.20
2019-04-25T23:10:27.482Z,51.00
2019-04-25T23:12:57.148Z,51.20
2019-04-25T23:15:26.786Z,51.10
2019-04-25T23:17:57.242Z,51.10
2019-04-25T23:20:28.081Z,51.00
2019-04-25T23:22:57.838Z,51.00
2019-04-25T23:25:33.152Z,51.00
2019-04-25T23:28:19.668Z,51.00
2019-04-25T23:31:03.859Z,51.00
2019-04-25T23:33:35.075Z,51.10
2019-04-25T23:36:05.671Z,51.00
2019-04-25T23:38:36.923Z,51.10
2019-04-25T23:41:07.313Z,51.10
2019-04-25T23:43:36.943Z,51.00
2019-04-25T23:46:07.297Z,51.10
2019-04-25T23:48:38.775Z,51.10
2019-04-25T23:51:08.782Z,51.10
2019-04-25T23:53:39.178Z,51.00
2019-04-25T23:56:08.941Z,51.70
2019-04-25T23:58:39.392Z,51.10
